Hickory Regional Airport
KHKY : rendu visible

Aérodrome :











RETROUVEZ-NOUS SUR...

 
LOGIN :

S'inscrire | Disclaimer

   EN    FR    IT 

 









Légende :    VFR   VFR Marginal   IFR   IFR Intensif   IFR Très Intensif
Visi : 
Plafond : 
>= 8 km
>= 3000ft
5 à 8 km
1000 à 3000 ft
1500m à 5 km
500 à 1000 ft
800 à 1500m
200 à 500 ft
< 800m
< 200 ft
Symboles :   Orages  Brouillard  Fortes neiges  Fortes précipitations  Vent > 20 kt






- Altitude de l'aérodrome : 1190 ft
- Code IATA : HKY


KHKY - Hickory Regional

DERNIER METAR :
  • 222253Z 00000KT 10SM BKN050 OVC065 15/07 A2999 RMK AO2 SLP144 T01500072

METARs EXPIRÉS :
  • 222153Z 00000KT 10SM OVC060 16/07 A2996 RMK AO2 SLP135 T01560072
  • 222053Z 21005KT 10SM OVC070 16/07 A2996 RMK AO2 SLP131 T01610067 55006

TAF KHKY
Valide du 23 à 00h jusqu'au 24 à 00h UTC


222337Z 2300/2324 VRB02KT P6SM OVC040
FM230500 03003KT P6SM VCSH OVC030
FM231200 05005KT 5SM -RA BR OVC012
FM231500 04005KT 3SM RA BR OVC006
FM231700 05004KT 2SM SHRA BR OVC004



MET'MAP, la Météo Aéronautique d'un coup d'oeil ! - Copyright ORBIFLY Décembre 2007 - Disclaimer

ORBIFLY MET'MAP TEAM :

Programmation & Développement : Alexandra Zaïnal
Conception & Développement : Baudouin d'Aumeries
Co-Programmation & Développement : Marc-Olivier Méhu
Soutien technique & logistique : Manuel Goepfert

Contact : metmap@orbifly.com




SOURCES & CREDITS :

   NOAA       Earth
Advisory